createdAt,value
2022-08-17T00:02:25.283Z,3.03
2022-08-17T00:04:55.351Z,3.00
2022-08-17T00:07:22.641Z,2.67
2022-08-17T00:09:49.374Z,3.00
2022-08-17T00:12:42.620Z,2.83
2022-08-17T00:15:04.101Z,2.95
2022-08-17T00:17:30.874Z,2.90
2022-08-17T00:19:57.516Z,3.10
2022-08-17T00:22:35.241Z,2.95
2022-08-17T00:25:12.929Z,2.75
2022-08-17T00:27:40.498Z,2.95
2022-08-17T00:30:09.416Z,2.85
2022-08-17T00:33:13.884Z,2.78
2022-08-17T00:35:34.464Z,3.05
2022-08-17T00:38:01.206Z,2.80
2022-08-17T00:40:44.283Z,3.05
2022-08-17T00:43:38.055Z,3.03
2022-08-17T00:46:26.792Z,2.78
2022-08-17T00:48:54.674Z,2.90
2022-08-17T00:51:42.665Z,2.90
2022-08-17T00:54:18.837Z,2.90
2022-08-17T00:56:56.829Z,3.00
2022-08-17T00:59:27.420Z,3.10
2022-08-17T01:01:54.340Z,2.92
2022-08-17T01:04:22.336Z,3.25
2022-08-17T01:06:49.744Z,3.10
2022-08-17T01:09:17.753Z,2.95
2022-08-17T01:11:46.279Z,3.65
2022-08-17T01:17:03.625Z,2.88
2022-08-17T01:19:33.844Z,2.90
2022-08-17T01:22:15.882Z,2.85
2022-08-17T01:24:47.012Z,3.40
2022-08-17T01:27:15.720Z,3.13
2022-08-17T01:29:49.775Z,2.90
2022-08-17T01:32:16.577Z,3.15
2022-08-17T01:34:50.113Z,3.10
2022-08-17T01:37:18.880Z,3.33
2022-08-17T01:40:08.364Z,3.17
2022-08-17T01:42:48.514Z,2.88
2022-08-17T01:45:24.973Z,3.10
2022-08-17T01:47:52.392Z,3.30
2022-08-17T01:50:34.597Z,3.50
2022-08-17T01:53:09.252Z,3.50
2022-08-17T01:55:45.622Z,3.22
2022-08-17T01:58:12.981Z,3.70
2022-08-17T02:00:47.842Z,3.30
2022-08-17T02:03:29.348Z,3.42
2022-08-17T02:05:56.223Z,3.72
2022-08-17T02:08:38.784Z,3.45
2022-08-17T02:11:13.102Z,3.60
2022-08-17T02:13:39.726Z,3.45
2022-08-17T02:16:06.443Z,3.45
2022-08-17T02:18:33.244Z,3.47
2022-08-17T02:21:00.051Z,3.70
2022-08-17T02:23:30.312Z,3.47
2022-08-17T02:25:59.445Z,3.50
2022-08-17T02:28:26.639Z,3.70
2022-08-17T02:31:01.640Z,4.07
2022-08-17T02:33:42.070Z,3.90
2022-08-17T02:36:11.682Z,3.97
2022-08-17T02:38:40.802Z,3.60
2022-08-17T02:41:08.278Z,3.58
2022-08-17T02:43:35.042Z,3.90
2022-08-17T02:46:01.693Z,3.97
2022-08-17T02:48:31.216Z,3.72
2022-08-17T02:50:59.645Z,3.20
2022-08-17T02:53:35.914Z,3.92
2022-08-17T02:56:03.820Z,3.95
2022-08-17T02:58:35.041Z,3.80
2022-08-17T03:01:06.455Z,3.70
2022-08-17T03:03:33.844Z,4.10
2022-08-17T03:06:01.699Z,3.72
2022-08-17T03:08:28.388Z,3.90
2022-08-17T03:10:55.105Z,4.25
2022-08-17T03:13:21.749Z,4.20
2022-08-17T03:15:49.226Z,3.88
2022-08-17T03:18:19.320Z,4.00
2022-08-17T03:20:55.940Z,3.95
2022-08-17T03:23:25.460Z,3.92
2022-08-17T03:25:53.741Z,3.88
2022-08-17T03:28:21.860Z,3.97
2022-08-17T03:30:49.380Z,3.88
2022-08-17T03:33:16.021Z,3.55
2022-08-17T03:35:42.990Z,4.00
2022-08-17T03:38:11.550Z,3.78
2022-08-17T03:40:56.970Z,3.53
2022-08-17T03:43:26.640Z,3.97
2022-08-17T03:45:53.218Z,4.00
2022-08-17T03:48:21.055Z,3.80
2022-08-17T03:50:47.641Z,3.70
2022-08-17T03:53:17.149Z,3.58
2022-08-17T03:55:43.719Z,3.90
2022-08-17T03:58:10.600Z,3.90
2022-08-17T04:00:39.826Z,3.95
2022-08-17T04:03:06.548Z,3.97
2022-08-17T04:05:35.935Z,4.30
2022-08-17T04:08:02.804Z,4.18
2022-08-17T04:10:33.915Z,4.10
2022-08-17T04:13:05.531Z,4.13
2022-08-17T04:15:32.177Z,3.88
2022-08-17T04:17:59.312Z,4.30
2022-08-17T04:20:25.976Z,3.60
2022-08-17T04:23:15.016Z,3.92
2022-08-17T04:25:47.769Z,3.95
2022-08-17T04:28:15.876Z,4.15
2022-08-17T04:30:44.867Z,4.07
2022-08-17T04:33:17.559Z,3.85
2022-08-17T04:35:46.370Z,3.85
2022-08-17T04:38:20.215Z,4.20
2022-08-17T04:40:47.496Z,3.75
2022-08-17T04:43:18.855Z,3.95
2022-08-17T04:45:51.528Z,4.15
2022-08-17T04:48:33.357Z,3.70
2022-08-17T04:51:04.038Z,3.97
2022-08-17T04:53:30.762Z,4.05
2022-08-17T04:55:57.468Z,4.07
2022-08-17T04:58:24.212Z,4.50
2022-08-17T05:00:50.992Z,4.47
2022-08-17T05:03:17.585Z,4.60
2022-08-17T05:05:44.343Z,4.53
2022-08-17T05:08:17.178Z,4.68
2022-08-17T05:10:45.481Z,4.30
2022-08-17T05:13:18.424Z,4.40
2022-08-17T05:15:47.887Z,4.20
2022-08-17T05:18:15.591Z,4.30
2022-08-17T05:20:42.653Z,4.57
2022-08-17T05:23:12.585Z,3.63
2022-08-17T05:25:48.683Z,3.92
2022-08-17T05:28:19.661Z,4.30
2022-08-17T05:30:51.257Z,4.05
2022-08-17T05:33:21.286Z,3.97
2022-08-17T05:35:49.754Z,3.72
2022-08-17T05:38:18.895Z,3.95
2022-08-17T05:40:46.474Z,3.67
2022-08-17T05:43:28.531Z,4.10
2022-08-17T05:45:56.408Z,4.07
2022-08-17T05:48:36.754Z,3.85
2022-08-17T05:51:12.591Z,3.85
2022-08-17T05:53:45.845Z,4.68
2022-08-17T05:56:34.639Z,3.78
2022-08-17T05:59:06.337Z,4.30
2022-08-17T06:01:59.437Z,4.10
2022-08-17T06:04:38.317Z,4.25
2022-08-17T06:07:17.072Z,4.07
2022-08-17T06:10:01.045Z,4.35
2022-08-17T06:12:30.678Z,4.25
2022-08-17T06:15:04.460Z,4.40
2022-08-17T06:17:32.029Z,4.47
2022-08-17T06:20:11.855Z,4.35
2022-08-17T06:22:46.212Z,4.35
2022-08-17T06:25:17.391Z,4.28
2022-08-17T06:27:53.603Z,4.47
2022-08-17T06:30:24.127Z,4.45
2022-08-17T06:32:51.456Z,4.20
2022-08-17T06:35:43.732Z,3.97
2022-08-17T06:38:38.977Z,4.30
2022-08-17T06:41:18.378Z,4.18
2022-08-17T06:44:05.359Z,3.90
2022-08-17T06:46:40.514Z,4.20
2022-08-17T06:49:20.781Z,3.33
2022-08-17T06:51:57.094Z,3.75
2022-08-17T06:54:38.453Z,3.60
2022-08-17T06:57:21.789Z,3.58
2022-08-17T07:00:02.336Z,3.78
2022-08-17T07:02:51.038Z,3.08
2022-08-17T07:05:25.478Z,3.75
2022-08-17T07:08:08.564Z,3.28
2022-08-17T07:10:46.851Z,3.78
2022-08-17T07:13:25.655Z,3.50
2022-08-17T07:15:57.325Z,3.45
2022-08-17T07:18:26.906Z,3.70
2022-08-17T07:21:00.179Z,3.30
2022-08-17T07:23:39.554Z,3.40
2022-08-17T07:26:08.003Z,3.35
2022-08-17T07:28:36.414Z,3.25
2022-08-17T07:31:04.633Z,3.33
2022-08-17T07:33:34.666Z,3.20
2022-08-17T07:36:01.272Z,3.00
2022-08-17T07:38:30.610Z,3.10
2022-08-17T07:40:57.191Z,3.13
2022-08-17T07:43:31.055Z,2.88
2022-08-17T07:46:11.434Z,2.97
2022-08-17T07:48:39.848Z,3.10
2022-08-17T07:51:24.415Z,2.75
2022-08-17T07:53:52.915Z,2.72
2022-08-17T07:56:38.509Z,3.03
2022-08-17T07:59:16.572Z,2.90
2022-08-17T08:01:59.156Z,2.70
2022-08-17T08:07:32.952Z,3.03
2022-08-17T08:10:13.565Z,3.00
2022-08-17T08:12:45.441Z,2.70
2022-08-17T08:15:19.248Z,3.00
2022-08-17T08:18:19.310Z,2.60
2022-08-17T08:21:11.762Z,2.33
2022-08-17T08:23:53.595Z,2.60
2022-08-17T08:26:39.268Z,2.42
2022-08-17T08:29:30.179Z,2.50
2022-08-17T08:32:52.758Z,2.63
2022-08-17T08:35:49.593Z,2.45
2022-08-17T08:38:39.556Z,2.30
2022-08-17T08:41:18.487Z,2.50
2022-08-17T08:44:14.394Z,2.47
2022-08-17T08:46:53.106Z,2.60
2022-08-17T08:50:02.716Z,2.53
2022-08-17T08:52:43.145Z,2.60
2022-08-17T08:55:29.363Z,2.15
2022-08-17T08:58:05.979Z,2.33
2022-08-17T09:00:38.322Z,2.40
2022-08-17T09:03:08.049Z,2.20
2022-08-17T09:06:28.700Z,1.98
2022-08-17T09:09:14.999Z,2.20
2022-08-17T09:12:05.282Z,2.30
2022-08-17T09:14:47.174Z,2.20
2022-08-17T09:17:24.821Z,1.95
2022-08-17T09:19:56.122Z,2.10
2022-08-17T09:22:31.003Z,2.10
2022-08-17T09:25:11.974Z,2.10
2022-08-17T09:28:01.103Z,2.00
2022-08-17T09:30:37.149Z,1.90
2022-08-17T09:33:09.001Z,1.88
2022-08-17T09:35:46.640Z,1.92
2022-08-17T09:38:23.288Z,2.05
2022-08-17T09:41:01.503Z,2.22
2022-08-17T09:44:00.909Z,2.00
2022-08-17T09:46:38.814Z,2.20
2022-08-17T09:49:21.872Z,2.10
2022-08-17T09:52:00.890Z,2.30
2022-08-17T09:54:39.934Z,2.00
2022-08-17T09:57:32.489Z,2.17
2022-08-17T10:00:05.364Z,2.03
2022-08-17T10:03:00.154Z,2.15
2022-08-17T10:05:46.334Z,2.28
2022-08-17T10:08:31.875Z,2.10
2022-08-17T10:11:19.850Z,2.08
2022-08-17T10:14:37.929Z,2.50
2022-08-17T10:17:04.430Z,1.90
2022-08-17T10:19:49.951Z,2.20
2022-08-17T10:22:37.955Z,2.25
2022-08-17T10:25:23.677Z,2.28
2022-08-17T10:27:58.314Z,2.13
2022-08-17T10:30:36.286Z,2.10
2022-08-17T10:33:06.622Z,2.20
2022-08-17T10:35:39.133Z,2.38
2022-08-17T10:38:05.751Z,2.00
2022-08-17T10:40:45.245Z,2.20
2022-08-17T10:43:37.797Z,2.08
2022-08-17T10:46:10.624Z,2.22
2022-08-17T10:49:19.049Z,2.00
2022-08-17T10:51:48.988Z,1.92
2022-08-17T10:54:24.703Z,2.28
2022-08-17T10:56:56.484Z,2.13
2022-08-17T10:59:35.508Z,2.30
2022-08-17T11:02:21.535Z,1.92
2022-08-17T11:05:00.467Z,1.92
2022-08-17T11:07:45.815Z,2.10
2022-08-17T11:10:31.097Z,2.00
2022-08-17T11:13:22.300Z,2.20
2022-08-17T11:15:58.770Z,2.03
2022-08-17T11:18:26.200Z,2.05
2022-08-17T11:21:29.577Z,2.05
2022-08-17T11:24:20.549Z,2.22
2022-08-17T11:27:12.375Z,2.15
2022-08-17T11:30:02.936Z,2.10
2022-08-17T11:32:54.676Z,1.95
2022-08-17T11:35:22.016Z,2.03
2022-08-17T11:38:16.032Z,2.20
2022-08-17T11:40:52.882Z,2.10
2022-08-17T11:43:42.944Z,2.20
2022-08-17T11:46:18.867Z,1.90
2022-08-17T11:49:08.558Z,2.10
2022-08-17T11:52:00.195Z,1.80
2022-08-17T11:54:33.819Z,2.30
2022-08-17T11:57:26.779Z,2.40
2022-08-17T12:00:06.728Z,2.17
2022-08-17T12:02:37.289Z,2.17
2022-08-17T12:05:25.003Z,2.05
2022-08-17T12:08:04.040Z,2.00
2022-08-17T12:10:35.027Z,1.80
2022-08-17T12:13:14.490Z,1.88
2022-08-17T12:15:46.936Z,1.88
2022-08-17T12:18:33.159Z,2.00
2022-08-17T12:21:27.862Z,1.80
2022-08-17T12:24:09.657Z,1.88
2022-08-17T12:26:36.939Z,2.00
2022-08-17T12:29:18.477Z,1.88
2022-08-17T12:31:58.932Z,1.90
2022-08-17T12:34:36.308Z,2.25
2022-08-17T12:37:07.764Z,2.03
2022-08-17T12:39:34.710Z,1.90
2022-08-17T12:42:02.754Z,1.90
2022-08-17T12:44:33.472Z,2.00
2022-08-17T12:47:16.860Z,2.00
2022-08-17T12:49:50.752Z,2.17
2022-08-17T12:52:26.571Z,2.00
2022-08-17T12:55:03.887Z,1.70
2022-08-17T12:57:39.908Z,1.88
2022-08-17T13:00:18.161Z,1.90
2022-08-17T13:02:44.812Z,2.17
2022-08-17T13:05:32.348Z,1.90
2022-08-17T13:08:00.016Z,2.13
2022-08-17T13:10:32.468Z,2.20
2022-08-17T13:13:02.090Z,1.90
2022-08-17T13:15:32.761Z,2.15
2022-08-17T13:18:07.933Z,2.10
2022-08-17T13:20:35.398Z,2.30
2022-08-17T13:23:11.483Z,2.75
2022-08-17T13:25:39.404Z,2.60
2022-08-17T13:28:06.040Z,2.40
2022-08-17T13:30:32.712Z,2.60
2022-08-17T13:33:04.741Z,2.30
2022-08-17T13:35:39.259Z,2.70
2022-08-17T13:38:12.230Z,2.40
2022-08-17T13:40:42.998Z,2.35
2022-08-17T13:43:10.515Z,2.40
2022-08-17T13:45:44.823Z,2.55
2022-08-17T13:48:25.379Z,2.63
2022-08-17T13:50:51.993Z,2.40
2022-08-17T13:53:24.111Z,2.50
2022-08-17T13:55:54.992Z,2.42
2022-08-17T13:58:29.486Z,2.42
2022-08-17T14:00:56.551Z,2.65
2022-08-17T14:03:24.175Z,2.65
2022-08-17T14:05:52.695Z,2.50
2022-08-17T14:08:20.517Z,2.33
2022-08-17T14:10:56.888Z,2.47
2022-08-17T14:13:23.815Z,2.70
2022-08-17T14:15:54.462Z,2.65
2022-08-17T14:18:50.648Z,2.70
2022-08-17T14:21:10.465Z,2.60
2022-08-17T14:23:37.649Z,2.60
2022-08-17T14:26:05.155Z,2.60
2022-08-17T14:28:32.161Z,2.63
2022-08-17T14:31:00.688Z,2.70
2022-08-17T14:33:28.435Z,2.72
2022-08-17T14:35:55.211Z,2.78
2022-08-17T14:38:21.773Z,2.80
2022-08-17T14:40:48.996Z,2.60
2022-08-17T14:43:15.710Z,2.65
2022-08-17T14:45:43.323Z,2.90
2022-08-17T14:48:10.647Z,2.47
2022-08-17T14:50:40.669Z,2.60
2022-08-17T14:53:10.121Z,2.30
2022-08-17T14:55:37.633Z,2.60
2022-08-17T14:58:04.287Z,2.75
2022-08-17T15:00:31.242Z,2.30
2022-08-17T15:03:00.501Z,2.90
2022-08-17T15:05:31.912Z,2.75
2022-08-17T15:08:01.250Z,2.95
2022-08-17T15:10:29.354Z,2.42
2022-08-17T15:12:56.536Z,2.33
2022-08-17T15:15:24.082Z,2.40
2022-08-17T15:17:51.416Z,2.60
2022-08-17T15:20:25.852Z,2.40
2022-08-17T15:22:52.646Z,2.38
2022-08-17T15:25:19.655Z,2.40
2022-08-17T15:27:46.538Z,2.40
2022-08-17T15:30:13.436Z,2.40
2022-08-17T15:32:50.895Z,2.20
2022-08-17T15:35:27.271Z,2.40
2022-08-17T15:37:56.974Z,2.45
2022-08-17T15:40:23.624Z,2.63
2022-08-17T15:42:50.271Z,2.55
2022-08-17T15:45:22.624Z,2.40
2022-08-17T15:47:49.569Z,2.30
2022-08-17T15:50:16.404Z,2.50
2022-08-17T15:52:43.161Z,2.25
2022-08-17T15:55:12.482Z,2.33
2022-08-17T15:57:40.289Z,2.10
2022-08-17T16:00:09.110Z,2.13
2022-08-17T16:03:45.668Z,2.20
2022-08-17T16:05:27.501Z,2.13
2022-08-17T16:07:55.939Z,2.30
2022-08-17T16:10:23.397Z,2.10
2022-08-17T16:13:01.578Z,2.10
2022-08-17T16:15:28.144Z,2.20
2022-08-17T16:17:55.133Z,2.30
2022-08-17T16:20:21.964Z,2.55
2022-08-17T16:22:50.177Z,2.28
2022-08-17T16:25:23.452Z,2.33
2022-08-17T16:28:10.175Z,1.95
2022-08-17T16:30:36.978Z,2.15
2022-08-17T16:33:04.069Z,2.20
2022-08-17T16:35:30.638Z,2.00
2022-08-17T16:37:58.450Z,2.00
2022-08-17T16:40:28.993Z,2.30
2022-08-17T16:42:59.195Z,2.45
2022-08-17T16:45:28.657Z,2.42
2022-08-17T16:47:55.721Z,3.10
2022-08-17T16:50:25.257Z,2.83
2022-08-17T16:52:53.056Z,2.25
2022-08-17T16:55:23.030Z,2.10
2022-08-17T16:57:57.844Z,2.00
2022-08-17T17:00:47.449Z,2.13
2022-08-17T17:03:20.770Z,1.80
2022-08-17T17:06:12.278Z,2.10
2022-08-17T17:08:55.933Z,1.92
2022-08-17T17:11:47.959Z,1.90
2022-08-17T17:14:20.403Z,2.08
2022-08-17T17:17:12.840Z,2.00
2022-08-17T17:19:48.693Z,2.05
2022-08-17T17:22:20.192Z,2.00
2022-08-17T17:25:13.767Z,2.08
2022-08-17T17:28:06.931Z,2.03
2022-08-17T17:30:49.868Z,2.33
2022-08-17T17:33:25.484Z,1.75
2022-08-17T17:35:59.982Z,2.25
2022-08-17T17:39:23.215Z,1.95
2022-08-17T17:41:57.222Z,2.25
2022-08-17T17:44:32.920Z,1.75
2022-08-17T17:47:02.824Z,2.20
2022-08-17T17:49:45.304Z,2.13
2022-08-17T17:52:25.869Z,1.90
2022-08-17T17:55:01.602Z,2.00
2022-08-17T17:57:52.794Z,1.77
2022-08-17T18:00:25.145Z,1.90
2022-08-17T18:03:13.240Z,2.00
2022-08-17T18:05:52.101Z,2.08
2022-08-17T18:08:58.108Z,4.95
2022-08-17T18:11:35.178Z,4.88
2022-08-17T18:14:22.595Z,4.50
2022-08-17T18:16:55.942Z,2.80
2022-08-17T18:19:31.544Z,2.38
2022-08-17T18:22:14.095Z,2.20
2022-08-17T18:24:45.089Z,2.20
2022-08-17T18:27:20.047Z,2.20
2022-08-17T18:29:48.519Z,1.90
2022-08-17T18:32:24.150Z,2.13
2022-08-17T18:35:23.502Z,2.00
2022-08-17T18:37:55.091Z,2.45
2022-08-17T18:40:32.342Z,2.20
2022-08-17T18:43:07.626Z,1.90
2022-08-17T18:45:42.941Z,2.10
2022-08-17T18:48:24.864Z,1.92
2022-08-17T18:50:54.163Z,1.98
2022-08-17T18:53:42.794Z,2.15
2022-08-17T18:56:30.659Z,1.92
2022-08-17T18:59:10.985Z,2.10
2022-08-17T19:02:11.797Z,2.22
2022-08-17T19:05:10.248Z,2.20
2022-08-17T19:07:42.029Z,2.20
2022-08-17T19:10:46.216Z,2.33
2022-08-17T19:13:37.412Z,2.00
2022-08-17T19:16:14.300Z,2.00
2022-08-17T19:19:14.294Z,2.30
2022-08-17T19:22:21.378Z,2.15
2022-08-17T19:25:16.158Z,1.98
2022-08-17T19:27:57.323Z,1.98
2022-08-17T19:30:25.428Z,2.00
2022-08-17T19:32:52.205Z,2.28
2022-08-17T19:35:20.925Z,2.60
2022-08-17T19:38:06.168Z,2.22
2022-08-17T19:40:55.904Z,2.25
2022-08-17T19:43:28.090Z,2.30
2022-08-17T19:46:03.467Z,2.40
2022-08-17T19:48:48.951Z,2.55
2022-08-17T19:51:30.348Z,2.20
2022-08-17T19:54:35.143Z,2.33
2022-08-17T19:57:10.307Z,2.20
2022-08-17T19:59:58.513Z,2.10
2022-08-17T20:02:57.636Z,2.50
2022-08-17T20:05:28.966Z,2.53
2022-08-17T20:08:06.797Z,2.70
2022-08-17T20:10:37.929Z,2.50
2022-08-17T20:13:10.430Z,2.60
2022-08-17T20:15:41.377Z,2.67
2022-08-17T20:18:34.589Z,2.78
2022-08-17T20:21:11.207Z,2.90
2022-08-17T20:24:23.256Z,2.80
2022-08-17T20:26:59.662Z,2.78
2022-08-17T20:29:37.555Z,2.80
2022-08-17T20:32:16.894Z,2.58
2022-08-17T20:34:47.232Z,3.10
2022-08-17T20:37:13.807Z,2.90
2022-08-17T20:40:05.980Z,2.40
2022-08-17T20:42:33.758Z,2.83
2022-08-17T20:45:21.519Z,2.60
2022-08-17T20:48:15.982Z,2.65
2022-08-17T20:50:44.175Z,2.67
2022-08-17T20:53:15.795Z,2.65
2022-08-17T20:55:51.341Z,2.40
2022-08-17T20:58:29.853Z,2.63
2022-08-17T21:00:57.679Z,3.08
2022-08-17T21:03:24.402Z,2.70
2022-08-17T21:05:59.917Z,2.70
2022-08-17T21:08:30.836Z,3.13
2022-08-17T21:10:59.101Z,2.63
2022-08-17T21:13:56.331Z,2.55
2022-08-17T21:16:41.435Z,2.45
2022-08-17T21:19:25.466Z,2.75
2022-08-17T21:22:02.761Z,2.58
2022-08-17T21:24:52.818Z,2.63
2022-08-17T21:27:19.470Z,2.70
2022-08-17T21:30:09.965Z,2.60
2022-08-17T21:32:42.031Z,2.60
2022-08-17T21:35:23.292Z,2.90
2022-08-17T21:37:54.012Z,2.95
2022-08-17T21:40:28.101Z,2.60
2022-08-17T21:42:59.903Z,2.70
2022-08-17T21:45:31.729Z,2.50
2022-08-17T21:48:20.280Z,2.90
2022-08-17T21:50:59.490Z,2.88
2022-08-17T21:53:35.955Z,3.05
2022-08-17T21:56:03.040Z,2.90
2022-08-17T21:58:33.592Z,2.60
2022-08-17T22:01:42.386Z,2.90
2022-08-17T22:04:11.890Z,2.72
2022-08-17T22:06:40.470Z,3.00
2022-08-17T22:09:13.014Z,3.15
2022-08-17T22:11:53.804Z,3.03
2022-08-17T22:14:54.153Z,3.22
2022-08-17T22:17:44.068Z,3.10
2022-08-17T22:20:14.978Z,2.90
2022-08-17T22:23:01.531Z,3.00
2022-08-17T22:25:28.582Z,3.08
2022-08-17T22:27:58.736Z,3.10
2022-08-17T22:30:39.267Z,3.10
2022-08-17T22:33:29.050Z,2.80
2022-08-17T22:36:32.437Z,3.08
2022-08-17T22:39:08.674Z,3.10
2022-08-17T22:41:47.477Z,2.80
2022-08-17T22:44:17.097Z,3.08
2022-08-17T22:46:58.934Z,2.88
2022-08-17T22:49:33.194Z,2.97
2022-08-17T22:52:06.438Z,3.10
2022-08-17T22:54:33.398Z,3.00
2022-08-17T22:57:03.395Z,3.30
2022-08-17T22:59:44.266Z,3.08
2022-08-17T23:02:13.417Z,3.10
2022-08-17T23:04:46.970Z,2.80
2022-08-17T23:07:14.894Z,3.67
2022-08-17T23:09:41.475Z,3.38
2022-08-17T23:12:13.223Z,3.47
2022-08-17T23:14:41.441Z,3.10
2022-08-17T23:17:08.529Z,3.33
2022-08-17T23:19:36.857Z,3.20
2022-08-17T23:22:08.729Z,3.40
2022-08-17T23:24:41.769Z,3.53
2022-08-17T23:27:08.427Z,3.28
2022-08-17T23:29:35.528Z,3.20
2022-08-17T23:32:02.288Z,3.45
2022-08-17T23:34:31.213Z,3.25
2022-08-17T23:36:58.380Z,3.28
2022-08-17T23:39:27.565Z,3.25
2022-08-17T23:41:57.821Z,3.70
2022-08-17T23:44:25.506Z,3.30
2022-08-17T23:46:53.428Z,3.35
2022-08-17T23:49:20.560Z,3.55
2022-08-17T23:51:48.635Z,3.25
2022-08-17T23:54:34.021Z,3.28
2022-08-17T23:57:02.534Z,3.38
2022-08-17T23:59:29.251Z,3.45
